Time;durP1;ratioP1;P1;durP2;ratioP2;P2;SDS_P1;SDS_P2;PMS_P1;PMS_P2;Temp;Humidity;BMP_temperature;BMP_pressure;BME280_temperature;BME280_humidity;BME280_pressure;Samples;Min_cycle;Max_cycle;Signal;HPM_P1;HPM_P2
2021/06/01 00:01:50;;;;;;;2.83;1.20;;;14.00;70.80;;;;;;5096318;28;20107;-84
2021/06/01 00:04:17;;;;;;;2.97;1.30;;;14.00;71.10;;;;;;5077840;28;20459;-84
2021/06/01 00:06:44;;;;;;;2.72;1.52;;;13.90;71.00;;;;;;5076590;28;20033;-84
2021/06/01 00:09:12;;;;;;;2.88;1.30;;;13.90;70.90;;;;;;5076719;28;20016;-84
2021/06/01 00:11:38;;;;;;;2.90;1.50;;;13.80;71.00;;;;;;5074204;28;20029;-84
2021/06/01 00:14:05;;;;;;;2.17;1.30;;;13.80;72.00;;;;;;5076351;28;20530;-84
2021/06/01 00:16:31;;;;;;;3.15;1.50;;;13.70;71.70;;;;;;5078273;28;20024;-84
2021/06/01 00:18:57;;;;;;;2.28;1.05;;;13.70;71.50;;;;;;5097021;28;20553;-83
2021/06/01 00:21:24;;;;;;;2.38;1.30;;;13.70;71.80;;;;;;5068285;28;20032;-83
2021/06/01 00:23:52;;;;;;;4.15;1.25;;;13.70;71.80;;;;;;5075920;28;20429;-84
2021/06/01 00:26:18;;;;;;;2.65;1.30;;;13.60;71.90;;;;;;5074140;28;20036;-84
2021/06/01 00:28:44;;;;;;;5.25;1.27;;;13.70;72.30;;;;;;5075927;28;20397;-84
2021/06/01 00:31:10;;;;;;;1.95;1.08;;;13.60;72.70;;;;;;5077732;28;20040;-84
2021/06/01 00:33:36;;;;;;;3.50;1.10;;;13.60;72.90;;;;;;5095933;28;20447;-84
2021/06/01 00:36:02;;;;;;;2.22;1.10;;;13.50;73.60;;;;;;5076905;28;20024;-84
2021/06/01 00:38:28;;;;;;;3.47;1.30;;;13.50;73.60;;;;;;5076284;28;20051;-84
2021/06/01 00:40:55;;;;;;;2.60;1.30;;;13.40;73.50;;;;;;5058114;28;20484;-84
2021/06/01 00:43:21;;;;;;;2.80;1.30;;;13.50;73.40;;;;;;5058183;28;20033;-84
2021/06/01 00:45:46;;;;;;;3.08;1.15;;;13.40;73.10;;;;;;5075964;28;20437;-84
2021/06/01 00:48:12;;;;;;;2.83;1.30;;;13.40;73.60;;;;;;5076345;28;20036;-83
2021/06/01 00:50:38;;;;;;;3.40;1.13;;;13.30;73.90;;;;;;5076169;28;20059;-84
2021/06/01 00:53:06;;;;;;;1.95;1.00;;;13.30;74.50;;;;;;5076242;28;20089;-83
2021/06/01 00:55:32;;;;;;;3.17;1.48;;;13.70;75.30;;;;;;5058871;28;20472;-83
2021/06/01 00:57:58;;;;;;;1.95;1.08;;;13.20;75.80;;;;;;5076141;28;20024;-84
2021/06/01 01:00:46;;;;;;;2.53;1.20;;;13.10;76.30;;;;;;5075311;28;20035;-84
2021/06/01 01:03:12;;;;;;;4.20;1.63;;;13.10;76.00;;;;;;5076465;28;20016;-84
2021/06/01 01:05:43;;;;;;;6.07;1.75;;;13.10;75.70;;;;;;5075513;28;20029;-83
2021/06/01 01:11:17;;;;;;;5.85;1.75;;;13.00;76.60;;;;;;5076386;28;20039;-84
2021/06/01 01:13:56;;;;;;;3.58;1.65;;;12.90;76.90;;;;;;5074920;28;20699;-84
2021/06/01 01:16:25;;;;;;;3.22;1.55;;;12.90;77.60;;;;;;5083784;28;20043;-83
2021/06/01 01:19:07;;;;;;;2.90;1.38;;;12.90;77.00;;;;;;5096779;28;20078;-84
2021/06/01 01:21:41;;;;;;;2.85;1.30;;;12.90;76.80;;;;;;5086085;28;20040;-84
2021/06/01 01:24:40;;;;;;;3.30;1.50;;;12.90;76.70;;;;;;5074791;28;20064;-84
2021/06/01 01:27:41;;;;;;;3.08;1.50;;;12.90;76.90;;;;;;5073703;28;20028;-84
2021/06/01 01:30:09;;;;;;;2.78;1.48;;;12.90;76.90;;;;;;5075965;28;20508;-84
2021/06/01 01:32:53;;;;;;;2.67;1.40;;;12.90;77.10;;;;;;5071326;28;20078;-84
2021/06/01 01:35:20;;;;;;;3.55;1.50;;;12.80;78.00;;;;;;5075452;28;20024;-83
2021/06/01 01:37:47;;;;;;;4.40;1.52;;;12.80;78.10;;;;;;5075705;28;20082;-84
2021/06/01 01:40:14;;;;;;;2.90;1.25;;;12.60;78.20;;;;;;5076057;28;20021;-83
2021/06/01 01:42:46;;;;;;;5.38;1.48;;;12.70;79.10;;;;;;5076018;28;20098;-83
2021/06/01 01:45:27;;;;;;;6.07;1.38;;;12.70;79.50;;;;;;5058275;28;20028;-84
2021/06/01 01:50:42;;;;;;;4.03;1.73;;;12.60;79.20;;;;;;5077159;28;20132;-84
2021/06/01 01:53:15;;;;;;;4.47;1.58;;;12.60;79.80;;;;;;5075987;28;20043;-83
2021/06/01 01:55:47;;;;;;;3.67;1.63;;;12.60;80.60;;;;;;5073612;28;20586;-84
2021/06/01 01:58:14;;;;;;;5.50;1.70;;;12.50;80.70;;;;;;5074777;28;20031;-84
2021/06/01 02:00:41;;;;;;;3.60;1.70;;;12.50;81.30;;;;;;5058177;28;20032;-84
2021/06/01 02:03:07;;;;;;;3.30;1.60;;;12.50;81.30;;;;;;5075861;28;20035;-84
2021/06/01 02:05:33;;;;;;;3.35;1.60;;;12.60;81.60;;;;;;5057304;28;20021;-84
2021/06/01 02:08:00;;;;;;;4.07;1.70;;;12.40;81.50;;;;;;5076124;28;20051;-84
2021/06/01 02:10:25;;;;;;;3.03;1.40;;;12.40;81.80;;;;;;5058293;28;20039;-84
2021/06/01 02:12:51;;;;;;;3.30;1.40;;;12.40;82.00;;;;;;5057705;28;20020;-83
2021/06/01 02:15:17;;;;;;;4.95;2.10;;;12.40;82.30;;;;;;5075793;28;20032;-83
2021/06/01 02:17:42;;;;;;;3.75;1.85;;;12.30;82.10;;;;;;5093640;28;20038;-84
2021/06/01 02:20:10;;;;;;;3.60;1.73;;;12.30;82.60;;;;;;5064657;28;20028;-83
2021/06/01 02:25:14;;;;;;;2.25;1.08;;;12.10;83.10;;;;;;5075552;28;20048;-84
2021/06/01 02:27:57;;;;;;;4.30;1.40;;;12.20;83.60;;;;;;5075665;28;20059;-84
2021/06/01 02:30:28;;;;;;;2.83;1.40;;;12.20;83.30;;;;;;5072731;28;20093;-84
2021/06/01 02:32:57;;;;;;;3.90;1.40;;;12.10;83.50;;;;;;5083596;28;20122;-83
2021/06/01 02:35:35;;;;;;;3.13;1.35;;;12.10;83.80;;;;;;5096208;28;20028;-83
2021/06/01 02:38:04;;;;;;;5.18;1.40;;;12.10;84.30;;;;;;5096547;28;20028;-83
2021/06/01 02:40:30;;;;;;;3.40;1.05;;;12.10;84.20;;;;;;5078415;28;20031;-84
2021/06/01 02:42:57;;;;;;;2.53;1.17;;;12.10;84.70;;;;;;5077124;28;20024;-84
2021/06/01 02:45:25;;;;;;;2.78;1.30;;;12.00;85.70;;;;;;5077796;28;20028;-84
2021/06/01 02:47:52;;;;;;;3.15;1.55;;;12.00;86.70;;;;;;5077781;28;20472;-84
2021/06/01 02:50:18;;;;;;;3.90;1.80;;;12.00;86.60;;;;;;5073087;28;20035;-84
2021/06/01 02:52:46;;;;;;;3.65;1.60;;;11.90;86.80;;;;;;5096143;28;20388;-84
2021/06/01 02:55:15;;;;;;;3.42;1.67;;;11.90;86.90;;;;;;5077455;28;20024;-83
2021/06/01 02:57:41;;;;;;;3.25;1.63;;;11.90;87.20;;;;;;5095913;28;20024;-83
2021/06/01 03:00:10;;;;;;;3.28;1.73;;;11.80;87.50;;;;;;5066009;28;20520;-84
2021/06/01 03:02:36;;;;;;;3.47;1.70;;;11.80;87.90;;;;;;5072340;28;20020;-84
2021/06/01 03:05:01;;;;;;;4.10;1.65;;;11.80;88.00;;;;;;5095813;28;20142;-83
2021/06/01 03:07:27;;;;;;;2.95;1.50;;;11.70;88.30;;;;;;5093952;28;20020;-83
2021/06/01 03:09:53;;;;;;;5.28;1.65;;;11.70;88.50;;;;;;5074498;28;20032;-83
2021/06/01 03:12:44;;;;;;;5.18;1.73;;;11.70;88.90;;;;;;5073871;28;20021;-84
2021/06/01 03:15:08;;;;;;;2.97;1.50;;;11.70;89.40;;;;;;5072027;28;20388;-84
2021/06/01 03:17:34;;;;;;;4.32;1.70;;;11.60;89.60;;;;;;5072203;28;20099;-84
2021/06/01 03:20:00;;;;;;;3.35;1.48;;;11.60;90.10;;;;;;5092946;28;20048;-83
2021/06/01 03:22:26;;;;;;;3.08;1.80;;;11.60;90.40;;;;;;5073215;28;20032;-84
2021/06/01 03:24:51;;;;;;;3.35;1.70;;;11.50;90.60;;;;;;5071391;28;20725;-84
2021/06/01 03:27:17;;;;;;;2.67;1.42;;;11.50;90.60;;;;;;5074045;28;20058;-84
2021/06/01 03:29:42;;;;;;;3.25;1.73;;;11.50;90.60;;;;;;5072799;28;20764;-83
2021/06/01 03:32:08;;;;;;;2.75;1.52;;;11.50;90.80;;;;;;5074054;28;20089;-83
2021/06/01 03:34:34;;;;;;;3.95;1.80;;;11.50;90.90;;;;;;5073202;28;20091;-83
2021/06/01 03:36:59;;;;;;;5.07;1.67;;;11.50;90.90;;;;;;5057498;28;20107;-83
2021/06/01 03:39:27;;;;;;;3.75;1.50;;;11.50;91.20;;;;;;5077124;28;20029;-83
2021/06/01 03:41:53;;;;;;;3.35;1.70;;;11.50;91.40;;;;;;5087301;28;20020;-84
2021/06/01 03:44:19;;;;;;;2.88;1.35;;;11.50;91.40;;;;;;5079859;28;20031;-83
2021/06/01 03:46:45;;;;;;;2.80;1.50;;;11.50;91.40;;;;;;5079857;28;20201;-83
2021/06/01 03:49:10;;;;;;;3.13;1.45;;;11.50;91.70;;;;;;5085247;28;20802;-84
2021/06/01 03:52:11;;;;;;;3.95;1.63;;;11.50;91.80;;;;;;5076611;28;20039;-83
2021/06/01 03:54:41;;;;;;;2.63;1.50;;;11.50;91.70;;;;;;5052001;28;20054;-84
2021/06/01 03:57:09;;;;;;;4.78;1.95;;;11.50;91.90;;;;;;5078664;28;20024;-84
2021/06/01 03:59:35;;;;;;;6.13;1.73;;;11.50;91.80;;;;;;5077931;28;20100;-83
2021/06/01 04:02:01;;;;;;;4.53;1.80;;;11.50;91.90;;;;;;5077394;28;20064;-84
2021/06/01 04:04:26;;;;;;;3.65;1.85;;;11.50;92.20;;;;;;5080895;28;20071;-83
2021/06/01 04:06:52;;;;;;;5.15;1.98;;;11.60;92.40;;;;;;5082234;28;20033;-83
2021/06/01 04:09:17;;;;;;;3.65;2.00;;;11.50;92.50;;;;;;5082094;28;20464;-83
2021/06/01 04:11:43;;;;;;;4.47;2.03;;;11.50;92.70;;;;;;5082061;28;20033;-83
2021/06/01 04:14:09;;;;;;;5.30;1.80;;;11.60;93.00;;;;;;5063816;28;20033;-83
2021/06/01 04:16:34;;;;;;;5.28;1.88;;;11.50;93.00;;;;;;5074731;28;20020;-83
2021/06/01 04:19:00;;;;;;;8.10;2.17;;;11.60;93.10;;;;;;5084205;28;20081;-83
2021/06/01 04:21:26;;;;;;;7.97;1.98;;;11.60;93.00;;;;;;5085196;28;20035;-83
2021/06/01 04:23:52;;;;;;;3.92;1.67;;;11.70;93.20;;;;;;5091496;28;20040;-84
2021/06/01 04:26:17;;;;;;;3.22;1.70;;;11.80;93.20;;;;;;5082307;28;20021;-84
2021/06/01 04:28:43;;;;;;;5.90;2.05;;;11.80;93.20;;;;;;5080917;28;20094;-83
2021/06/01 04:31:08;;;;;;;4.43;1.98;;;11.90;93.20;;;;;;5080929;28;20075;-84
2021/06/01 04:33:34;;;;;;;3.75;2.00;;;12.00;93.20;;;;;;5062425;28;20025;-84
2021/06/01 04:36:00;;;;;;;4.60;1.90;;;12.10;93.00;;;;;;5082240;28;20047;-83
2021/06/01 04:38:26;;;;;;;5.30;1.83;;;12.20;92.50;;;;;;5082284;28;20484;-84
2021/06/01 04:40:52;;;;;;;3.25;1.45;;;12.30;92.10;;;;;;5081293;28;20055;-84
2021/06/01 04:43:17;;;;;;;2.95;1.65;;;12.30;91.90;;;;;;5088825;28;20047;-83
2021/06/01 04:45:43;;;;;;;5.90;1.65;;;12.40;91.70;;;;;;5077097;28;20037;-83
2021/06/01 04:48:08;;;;;;;4.03;1.70;;;12.50;91.80;;;;;;5076996;28;20025;-84
2021/06/01 04:50:35;;;;;;;3.05;1.52;;;12.60;91.30;;;;;;5077735;28;20033;-83
2021/06/01 04:53:00;;;;;;;2.88;1.55;;;12.70;91.00;;;;;;5078635;28;20658;-83
2021/06/01 04:55:26;;;;;;;2.63;1.17;;;12.80;91.40;;;;;;5077603;28;20064;-83
2021/06/01 04:57:51;;;;;;;3.88;1.63;;;12.90;91.10;;;;;;5076007;28;20330;-83
2021/06/01 05:00:18;;;;;;;2.50;1.35;;;13.10;91.00;;;;;;5059234;28;20024;-84
2021/06/01 05:02:43;;;;;;;3.13;1.70;;;13.10;90.80;;;;;;5092981;28;20033;-84
2021/06/01 05:05:10;;;;;;;3.75;1.95;;;13.20;90.70;;;;;;5077454;28;20031;-84
2021/06/01 05:07:35;;;;;;;3.67;1.58;;;13.20;90.20;;;;;;5077197;28;20063;-83
2021/06/01 05:10:03;;;;;;;4.00;1.95;;;13.30;90.00;;;;;;5070544;28;20076;-84
2021/06/01 05:12:29;;;;;;;4.38;1.60;;;13.40;89.30;;;;;;5075585;28;20025;-84
2021/06/01 05:14:55;;;;;;;2.83;1.40;;;13.40;90.00;;;;;;5076164;28;20042;-84
2021/06/01 05:17:21;;;;;;;5.15;1.70;;;13.50;90.30;;;;;;5080088;28;20547;-83
2021/06/01 05:19:46;;;;;;;3.83;1.92;;;13.60;90.10;;;;;;5075124;28;20024;-83
2021/06/01 05:22:12;;;;;;;4.15;1.90;;;13.60;89.90;;;;;;5075224;28;20074;-84
2021/06/01 05:24:38;;;;;;;4.18;1.70;;;13.60;89.90;;;;;;5073636;28;20029;-84
2021/06/01 05:27:05;;;;;;;2.88;1.38;;;13.60;89.30;;;;;;5071696;28;20036;-84
2021/06/01 05:29:32;;;;;;;3.40;1.60;;;13.80;89.20;;;;;;5073505;28;20039;-84
2021/06/01 05:32:04;;;;;;;2.88;1.40;;;13.90;89.10;;;;;;5095700;22;20048;-82
2021/06/01 05:34:30;;;;;;;3.05;1.50;;;13.90;87.70;;;;;;5058100;28;20027;-81
2021/06/01 05:36:56;;;;;;;3.80;1.75;;;14.00;88.90;;;;;;5075838;28;20028;-82
2021/06/01 05:39:22;;;;;;;3.67;1.50;;;14.10;88.50;;;;;;5075704;28;20067;-82
2021/06/01 05:41:47;;;;;;;3.67;1.42;;;14.20;88.70;;;;;;5084029;28;20484;-82
2021/06/01 05:44:13;;;;;;;2.80;1.50;;;14.30;88.30;;;;;;5078393;28;20074;-82
2021/06/01 05:46:39;;;;;;;3.17;1.40;;;14.40;88.00;;;;;;5096238;28;20141;-82
2021/06/01 05:49:05;;;;;;;3.80;1.50;;;14.50;86.90;;;;;;5076420;28;20078;-82
2021/06/01 05:51:35;;;;;;;3.60;1.63;;;14.50;87.10;;;;;;5083891;28;20430;-82
2021/06/01 05:54:08;;;;;;;3.20;1.55;;;14.60;86.50;;;;;;5082357;28;20028;-81
2021/06/01 05:56:35;;;;;;;4.15;1.60;;;14.70;86.50;;;;;;5092785;28;20031;-82
2021/06/01 05:59:00;;;;;;;3.13;1.17;;;14.80;86.20;;;;;;5076235;28;20569;-82
2021/06/01 06:01:26;;;;;;;3.53;1.50;;;15.00;86.90;;;;;;5093353;28;20185;-83
2021/06/01 06:03:52;;;;;;;3.33;1.65;;;15.00;84.90;;;;;;5078679;28;20031;-82
2021/06/01 06:06:20;;;;;;;4.13;1.50;;;15.10;84.70;;;;;;5073385;28;20556;-82
2021/06/01 06:08:46;;;;;;;2.85;1.25;;;15.20;85.20;;;;;;5058138;28;20389;-82
2021/06/01 06:11:11;;;;;;;5.20;1.48;;;15.30;82.60;;;;;;5074052;28;20024;-82
2021/06/01 06:13:37;;;;;;;2.78;1.33;;;15.40;82.60;;;;;;5075614;28;20501;-82
2021/06/01 06:16:03;;;;;;;2.80;1.40;;;15.40;82.10;;;;;;5079363;28;20095;-83
2021/06/01 06:18:45;;;;;;;2.65;1.30;;;15.50;82.70;;;;;;5096441;28;20484;-83
2021/06/01 06:21:11;;;;;;;4.50;1.45;;;15.50;84.20;;;;;;5076914;28;20166;-82
2021/06/01 06:23:41;;;;;;;2.58;1.25;;;15.50;82.30;;;;;;5074822;28;20051;-82
2021/06/01 06:26:07;;;;;;;3.17;1.30;;;15.70;81.30;;;;;;5076103;28;20051;-82
2021/06/01 06:28:33;;;;;;;2.95;1.40;;;15.70;82.00;;;;;;5074890;28;20081;-82
2021/06/01 06:31:00;;;;;;;3.08;1.40;;;15.70;81.50;;;;;;5081470;28;20016;-82
2021/06/01 06:33:25;;;;;;;4.63;2.08;;;15.90;82.60;;;;;;5087888;28;20037;-82
2021/06/01 06:35:51;;;;;;;3.53;1.38;;;16.00;81.80;;;;;;5090824;28;20020;-82
2021/06/01 06:38:17;;;;;;;3.92;1.30;;;16.20;82.00;;;;;;5090281;28;20024;-83
2021/06/01 06:40:48;;;;;;;2.65;1.13;;;16.30;82.00;;;;;;5080005;28;20462;-82
2021/06/01 06:43:14;;;;;;;2.55;1.25;;;16.50;81.80;;;;;;5074571;28;20399;-82
2021/06/01 06:45:40;;;;;;;2.53;1.30;;;16.60;80.20;;;;;;5073665;28;20084;-82
2021/06/01 06:48:10;;;;;;;2.75;1.08;;;16.70;78.60;;;;;;5056052;28;20049;-82
2021/06/01 06:50:36;;;;;;;4.47;1.25;;;16.70;77.40;;;;;;5075701;28;20522;-83
2021/06/01 06:53:04;;;;;;;2.70;1.27;;;16.80;77.30;;;;;;5076440;28;20024;-83
2021/06/01 06:55:30;;;;;;;3.00;1.50;;;16.90;77.20;;;;;;5077327;28;20024;-83
2021/06/01 06:57:56;;;;;;;3.40;1.10;;;16.90;77.30;;;;;;5073467;28;20555;-83
2021/06/01 07:00:25;;;;;;;3.95;1.20;;;17.10;78.20;;;;;;5057667;28;20105;-83
2021/06/01 07:02:52;;;;;;;4.18;1.17;;;17.30;75.60;;;;;;5075434;28;20064;-83
2021/06/01 07:05:19;;;;;;;2.72;1.30;;;17.60;76.20;;;;;;5057485;28;20124;-83
2021/06/01 07:07:47;;;;;;;3.53;1.27;;;17.80;74.40;;;;;;5075637;28;20036;-83
2021/06/01 07:10:13;;;;;;;2.53;1.20;;;17.90;72.70;;;;;;5060115;28;20437;-83
2021/06/01 07:12:42;;;;;;;2.70;1.20;;;18.00;72.60;;;;;;5079898;28;20025;-83
2021/06/01 07:15:23;;;;;;;2.75;1.08;;;18.00;71.80;;;;;;5063921;28;20044;-83
2021/06/01 07:17:59;;;;;;;2.53;1.02;;;18.10;71.70;;;;;;5101637;28;20024;-84
2021/06/01 07:20:30;;;;;;;1.73;1.00;;;18.20;70.70;;;;;;5103073;28;20027;-85
2021/06/01 07:22:56;;;;;;;2.40;1.10;;;18.10;72.00;;;;;;5103545;28;20024;-84
2021/06/01 07:25:22;;;;;;;2.75;1.02;;;18.10;69.70;;;;;;5066892;28;20082;-83
2021/06/01 07:27:47;;;;;;;2.78;1.10;;;18.10;71.30;;;;;;5063853;28;20020;-83
2021/06/01 07:30:13;;;;;;;2.17;1.05;;;18.40;69.10;;;;;;5083180;28;20064;-83
2021/06/01 07:32:39;;;;;;;4.20;1.20;;;18.40;69.30;;;;;;5082936;28;20032;-83
2021/06/01 07:35:05;;;;;;;2.85;1.30;;;18.50;70.80;;;;;;5082136;28;20093;-83
2021/06/01 07:37:31;;;;;;;2.03;1.00;;;18.50;70.50;;;;;;5081626;28;20029;-83
2021/06/01 07:39:56;;;;;;;4.57;1.50;;;18.70;69.20;;;;;;5077338;28;20419;-83
2021/06/01 07:42:22;;;;;;;2.67;1.08;;;18.80;69.70;;;;;;5079429;28;20361;-83
2021/06/01 07:44:48;;;;;;;1.98;1.00;;;19.00;68.10;;;;;;5077200;28;20029;-83
2021/06/01 07:47:14;;;;;;;2.08;1.20;;;19.10;66.70;;;;;;5077732;28;20016;-83
2021/06/01 07:49:39;;;;;;;2.90;1.10;;;19.30;65.00;;;;;;5077149;28;20076;-83
2021/06/01 07:52:05;;;;;;;2.63;0.90;;;19.20;65.60;;;;;;5091212;28;20059;-83
2021/06/01 07:54:32;;;;;;;2.13;1.00;;;19.30;67.90;;;;;;5079734;28;20048;-83
2021/06/01 07:56:58;;;;;;;4.13;1.40;;;19.50;66.00;;;;;;5096973;28;20016;-83
2021/06/01 07:59:24;;;;;;;2.03;1.05;;;19.40;65.00;;;;;;5077793;28;20048;-83
2021/06/01 08:01:50;;;;;;;1.92;0.95;;;19.30;65.80;;;;;;5077970;28;20373;-83
2021/06/01 08:04:16;;;;;;;2.08;1.10;;;19.30;65.60;;;;;;5077214;28;20028;-83
2021/06/01 08:06:41;;;;;;;3.00;1.13;;;19.30;65.10;;;;;;5076169;28;20036;-83
2021/06/01 08:09:08;;;;;;;2.17;0.90;;;19.60;66.60;;;;;;5077159;28;20033;-83
2021/06/01 08:11:34;;;;;;;2.83;0.95;;;19.80;65.10;;;;;;5077332;28;20046;-83
2021/06/01 08:14:00;;;;;;;2.53;0.98;;;19.80;63.40;;;;;;5076537;28;20020;-83
2021/06/01 08:16:26;;;;;;;2.13;0.95;;;19.80;64.70;;;;;;5084373;28;20032;-83
2021/06/01 08:19:10;;;;;;;4.28;1.30;;;20.00;65.00;;;;;;5080045;28;20032;-83
2021/06/01 08:22:00;;;;;;;3.83;0.90;;;20.10;64.00;;;;;;5098364;28;20115;-83
2021/06/01 08:24:22;;;;;;;2.63;0.90;;;20.20;64.50;;;;;;5081827;28;20040;-84
2021/06/01 08:26:48;;;;;;;2.88;0.93;;;20.50;63.70;;;;;;5077098;28;20047;-83
2021/06/01 08:29:13;;;;;;;1.73;0.90;;;20.60;60.80;;;;;;5058570;28;20413;-83
2021/06/01 08:31:41;;;;;;;1.63;1.08;;;20.80;60.10;;;;;;5077109;28;20081;-83
2021/06/01 08:34:07;;;;;;;1.30;0.63;;;20.70;58.60;;;;;;5073117;28;20025;-83
2021/06/01 08:36:34;;;;;;;1.63;0.80;;;20.70;58.60;;;;;;5075436;28;20111;-84
2021/06/01 08:38:59;;;;;;;2.42;0.82;;;20.90;57.80;;;;;;5075421;28;20085;-83
2021/06/01 08:41:25;;;;;;;1.80;0.70;;;21.00;57.10;;;;;;5075289;28;20032;-83
2021/06/01 08:43:52;;;;;;;1.98;0.90;;;21.00;54.50;;;;;;5074529;28;20123;-83
2021/06/01 08:46:22;;;;;;;2.88;0.93;;;21.20;55.00;;;;;;5057904;28;20111;-83
2021/06/01 08:48:48;;;;;;;2.67;0.88;;;21.40;55.10;;;;;;5076201;28;20453;-84
2021/06/01 08:51:20;;;;;;;3.65;0.90;;;21.20;55.40;;;;;;5077587;28;20050;-83
2021/06/01 08:53:46;;;;;;;1.30;0.65;;;21.20;53.70;;;;;;5095938;28;20024;-84
2021/06/01 08:56:11;;;;;;;1.70;0.80;;;21.30;53.90;;;;;;5097032;28;20043;-83
2021/06/01 08:58:37;;;;;;;1.90;0.75;;;21.30;53.10;;;;;;5073512;28;20017;-83
2021/06/01 09:01:02;;;;;;;2.92;1.10;;;21.00;53.60;;;;;;5057953;28;20035;-84
2021/06/01 09:03:28;;;;;;;2.55;1.02;;;20.80;53.10;;;;;;5056913;28;20028;-83
2021/06/01 09:22:51;;;;;;;1.92;0.75;;;22.10;52.10;;;;;;5076138;28;20031;-84
2021/06/01 09:25:55;;;;;;;3.67;0.93;;;22.30;52.40;;;;;;5065717;28;20024;-84
2021/06/01 09:28:21;;;;;;;1.92;0.90;;;22.10;50.60;;;;;;5074068;28;20036;-84
2021/06/01 09:30:54;;;;;;;3.60;0.90;;;22.20;51.20;;;;;;5075651;28;20029;-84
2021/06/01 09:33:20;;;;;;;1.83;0.88;;;22.20;50.70;;;;;;5074723;28;20449;-84
2021/06/01 09:35:48;;;;;;;2.63;0.90;;;22.30;51.30;;;;;;5075214;28;20047;-83
2021/06/01 09:38:14;;;;;;;1.90;0.80;;;22.20;51.20;;;;;;5057480;28;20135;-82
2021/06/01 09:40:41;;;;;;;1.70;0.75;;;22.20;50.50;;;;;;5057458;28;20500;-82
2021/06/01 09:43:14;;;;;;;3.35;0.80;;;22.40;50.40;;;;;;5057348;28;20043;-84
2021/06/01 09:45:43;;;;;;;2.08;0.80;;;22.50;50.60;;;;;;5074657;28;20503;-83
2021/06/01 09:48:11;;;;;;;1.70;0.80;;;22.30;48.70;;;;;;5075016;28;20029;-83
2021/06/01 09:53:29;;;;;;;1.75;0.77;;;22.50;50.60;;;;;;5094678;28;20352;-83
2021/06/01 09:55:55;;;;;;;2.05;0.90;;;22.60;47.70;;;;;;5076638;28;20453;-83
2021/06/01 09:58:32;;;;;;;2.53;0.90;;;22.50;49.30;;;;;;5074722;28;20031;-83
2021/06/01 10:01:00;;;;;;;2.38;1.10;;;22.70;50.00;;;;;;5056858;28;20028;-83
2021/06/01 10:03:35;;;;;;;1.70;0.70;;;23.00;49.50;;;;;;5056466;28;20039;-83
2021/06/01 10:06:01;;;;;;;2.30;0.98;;;23.10;49.80;;;;;;5074873;28;20427;-84
2021/06/01 10:08:28;;;;;;;3.03;0.80;;;23.50;48.80;;;;;;5056795;28;20032;-83
2021/06/01 10:11:00;;;;;;;2.50;0.73;;;23.60;47.60;;;;;;5074226;28;20090;-84
2021/06/01 10:13:31;;;;;;;2.10;0.90;;;23.50;47.20;;;;;;5075392;28;20028;-84
2021/06/01 10:15:59;;;;;;;2.33;0.75;;;23.30;48.00;;;;;;5077902;28;20027;-83
2021/06/01 10:18:30;;;;;;;1.58;0.68;;;23.50;48.20;;;;;;5095023;28;20138;-83
2021/06/01 10:21:05;;;;;;;2.05;0.63;;;23.80;47.20;;;;;;5084116;28;20395;-82
2021/06/01 10:23:37;;;;;;;2.78;0.70;;;24.20;47.80;;;;;;5096441;28;20540;-83
2021/06/01 10:26:05;;;;;;;4.13;1.30;;;24.50;47.60;;;;;;5067824;28;20099;-83
2021/06/01 10:31:02;;;;;;;1.98;0.90;;;24.30;44.90;;;;;;5075742;28;20032;-83
2021/06/01 10:33:36;;;;;;;1.65;0.70;;;24.20;46.80;;;;;;5075705;28;20028;-84
2021/06/01 10:36:29;;;;;;;1.83;0.85;;;24.40;46.70;;;;;;5076135;28;20028;-84
2021/06/01 10:50:23;;;;;;;5.20;0.80;;;24.90;45.50;;;;;;5075669;28;20089;-83
2021/06/01 10:53:07;;;;;;;1.70;0.77;;;25.30;45.40;;;;;;5067142;28;20043;-83
2021/06/01 10:55:58;;;;;;;1.98;0.98;;;25.70;44.60;;;;;;5077759;28;20024;-82
2021/06/01 10:58:50;;;;;;;1.95;0.80;;;25.20;43.90;;;;;;5074464;28;20025;-83
2021/06/01 11:07:11;;;;;;;2.15;0.90;;;25.50;45.10;;;;;;5085869;28;20028;-81
2021/06/01 11:09:37;;;;;;;3.00;1.05;;;25.50;43.80;;;;;;5096027;28;20020;-83
2021/06/01 11:12:20;;;;;;;2.35;0.93;;;25.50;43.40;;;;;;5077555;28;20035;-83
2021/06/01 11:14:48;;;;;;;2.20;0.70;;;25.80;44.80;;;;;;5073133;28;20056;-83
2021/06/01 11:17:14;;;;;;;2.33;1.00;;;25.80;44.00;;;;;;5090330;28;20016;-83
2021/06/01 11:20:05;;;;;;;1.77;0.75;;;25.90;43.80;;;;;;5077236;28;20031;-84
2021/06/01 11:22:42;;;;;;;;;;;25.90;43.90;;;;;;5096475;28;20024;-82
2021/06/01 11:33:30;;;;;;;3.92;0.88;;;26.40;44.00;;;;;;5074831;28;20039;-82
2021/06/01 11:36:04;;;;;;;2.05;0.90;;;26.50;44.40;;;;;;5088682;22;20052;-85
2021/06/01 11:43:49;;;;;;;2.20;0.82;;;27.20;42.30;;;;;;5089907;28;20043;-85
2021/06/01 11:51:16;;;;;;;2.83;1.13;;;26.90;41.90;;;;;;5091087;28;20044;-85
2021/06/01 11:53:53;;;;;;;4.10;1.02;;;27.10;43.20;;;;;;5097040;28;20048;-85
2021/06/01 12:18:51;;;;;;;2.05;1.00;;;28.10;41.50;;;;;;5117281;28;20050;-85
2021/06/01 12:21:23;;;;;;;2.67;0.93;;;28.30;40.90;;;;;;5092805;28;20024;-85
2021/06/01 12:24:04;;;;;;;3.63;1.05;;;27.90;41.70;;;;;;5093404;28;20027;-85
2021/06/01 12:32:22;;;;;;;2.72;1.00;;;28.30;41.20;;;;;;5094429;28;20031;-85
2021/06/01 12:34:57;;;;;;;4.45;1.02;;;27.30;41.30;;;;;;5094489;28;20028;-85
2021/06/01 13:46:18;;;;;;;2.35;0.80;;;28.90;39.50;;;;;;5040394;28;20067;-85
2021/06/01 13:51:35;;;;;;;2.35;0.80;;;29.00;38.10;;;;;;5091881;28;20028;-85
2021/06/01 14:00:03;;;;;;;1.38;0.70;;;29.90;38.60;;;;;;5087825;28;20194;-86
2021/06/01 14:21:53;;;;;;;3.15;0.88;;;30.00;36.80;;;;;;5110564;28;20133;-85
2021/06/01 14:27:58;;;;;;;1.95;0.80;;;30.50;37.20;;;;;;5081214;28;20111;-85
2021/06/01 14:28:00;;;;;;;2.25;0.82;;;31.20;36.70;;;;;;5073206;28;20032;-85
2021/06/01 14:35:54;;;;;;;1.80;0.73;;;30.80;36.10;;;;;;5090520;28;20039;-86
2021/06/01 14:55:41;;;;;;;2.15;1.00;;;30.50;36.80;;;;;;5090627;28;20115;-86
2021/06/01 15:22:34;;;;;;;3.22;0.70;;;30.70;38.50;;;;;;5090666;28;20028;-86
2021/06/01 15:41:17;;;;;;;1.23;0.70;;;30.80;38.00;;;;;;5093983;28;20024;-85
2021/06/01 15:49:41;;;;;;;1.48;0.77;;;30.60;37.60;;;;;;5091902;28;20123;-85
2021/06/01 16:12:18;;;;;;;2.08;0.90;;;29.50;36.20;;;;;;5093787;28;20062;-84
2021/06/01 16:23:06;;;;;;;1.50;0.80;;;28.50;38.30;;;;;;5114079;28;20072;-85
2021/06/01 17:03:25;;;;;;;2.15;0.80;;;24.60;42.50;;;;;;5094917;28;20026;-84
2021/06/01 17:05:54;;;;;;;2.00;0.90;;;24.50;43.00;;;;;;5092665;28;20032;-84
2021/06/01 17:08:58;;;;;;;3.72;0.95;;;24.50;43.00;;;;;;5074623;28;20094;-84
2021/06/01 17:11:30;;;;;;;1.90;0.77;;;24.40;42.50;;;;;;5092410;28;20024;-84
2021/06/01 17:14:01;;;;;;;1.95;0.80;;;24.10;42.50;;;;;;5073633;28;20032;-84
2021/06/01 17:16:40;;;;;;;;;;;24.10;42.50;;;;;;5074384;28;20031;-83
2021/06/01 17:34:59;;;;;;;1.20;0.70;;;23.60;44.40;;;;;;5091572;28;20471;-83
2021/06/01 17:37:25;;;;;;;2.00;0.80;;;23.50;43.40;;;;;;5099774;22;20045;-84
2021/06/01 17:39:51;;;;;;;2.42;0.70;;;23.40;43.90;;;;;;5077949;28;20080;-83
2021/06/01 17:42:19;;;;;;;1.98;0.82;;;23.30;44.80;;;;;;5077967;28;20078;-83
2021/06/01 17:44:49;;;;;;;2.03;0.82;;;23.20;45.30;;;;;;5071886;28;20079;-83
2021/06/01 17:47:23;;;;;;;2.25;0.90;;;23.20;44.70;;;;;;5069508;28;20075;-83
2021/06/01 17:49:51;;;;;;;3.55;0.75;;;23.10;45.00;;;;;;5041133;28;20029;-82
2021/06/01 17:52:28;;;;;;;1.48;0.75;;;23.00;45.40;;;;;;5059023;28;20025;-81
2021/06/01 17:54:54;;;;;;;2.78;1.15;;;23.00;45.10;;;;;;5057153;28;20044;-81
2021/06/01 17:57:22;;;;;;;2.17;0.98;;;22.80;45.80;;;;;;5031836;28;20439;-82
2021/06/01 17:59:48;;;;;;;2.22;0.90;;;22.80;46.00;;;;;;5064894;28;20035;-81
2021/06/01 18:02:17;;;;;;;3.08;0.73;;;22.80;46.20;;;;;;5039887;28;20022;-80
2021/06/01 18:04:45;;;;;;;2.75;0.70;;;22.70;46.10;;;;;;5037888;28;20025;-82
2021/06/01 18:07:15;;;;;;;2.10;0.70;;;22.60;46.20;;;;;;5036580;28;20547;-81
2021/06/01 18:37:57;;;;;;;1.98;0.80;;;21.70;52.10;;;;;;5037821;28;20124;-82
2021/06/01 19:50:33;;;;;;;3.50;1.25;;;19.50;55.30;;;;;;5059556;28;20063;-83
2021/06/01 19:53:00;;;;;;;1.83;1.13;;;19.70;55.60;;;;;;5042754;28;20045;-83
2021/06/01 19:55:27;;;;;;;2.70;1.15;;;19.60;55.60;;;;;;5023691;28;20056;-84
2021/06/01 19:57:54;;;;;;;2.13;1.08;;;19.50;55.50;;;;;;5024095;28;20108;-84
2021/06/01 20:00:21;;;;;;;1.73;0.98;;;19.50;55.70;;;;;;5042030;28;20497;-83
2021/06/01 20:02:47;;;;;;;2.53;1.00;;;19.40;55.40;;;;;;5024269;28;20033;-85
2021/06/01 20:05:18;;;;;;;3.13;1.13;;;19.40;56.40;;;;;;5042064;28;20033;-85
2021/06/01 20:07:45;;;;;;;3.83;1.10;;;19.30;56.60;;;;;;5041247;28;20033;-85
2021/06/01 20:10:13;;;;;;;5.00;1.60;;;19.20;56.20;;;;;;5024405;28;20512;-83
2021/06/01 20:12:40;;;;;;;2.70;1.30;;;19.20;56.20;;;;;;5042486;28;20033;-86
2021/06/01 20:15:07;;;;;;;2.13;1.02;;;19.20;57.00;;;;;;5023129;28;20485;-84
2021/06/01 20:17:42;;;;;;;2.35;1.10;;;19.10;57.10;;;;;;5041739;28;20073;-85
2021/06/01 20:20:11;;;;;;;2.40;1.13;;;19.10;57.20;;;;;;5030010;28;20052;-84